Time;durP1;ratioP1;P1;durP2;ratioP2;P2;SDS_P1;SDS_P2;PMS_P1;PMS_P2;Temp;Humidity;BMP_temperature;BMP_pressure;BME280_temperature;BME280_humidity;BME280_pressure;Samples;Min_cycle;Max_cycle;Signal;HPM_P1;HPM_P2
2022/09/03 00:00:07;;;;;;;2.30;1.50;;;15.10;92.30;;;16.03;81.33;97688.97;5082290;28;20952;-83
2022/09/03 00:02:44;;;;;;;2.60;1.40;;;15.10;92.20;;;15.90;81.60;97687.34;5083692;28;21324;-83
2022/09/03 00:05:22;;;;;;;5.43;1.77;;;15.10;92.20;;;15.83;82.22;97693.75;5083294;28;20506;-84
2022/09/03 00:08:03;;;;;;;2.63;1.73;;;15.00;92.10;;;15.84;82.25;97701.44;5085745;28;20471;-83
2022/09/03 00:10:44;;;;;;;2.43;1.90;;;15.00;92.20;;;15.93;81.58;97694.78;5084980;28;20519;-83
2022/09/03 00:13:23;;;;;;;3.87;1.40;;;15.10;92.20;;;15.94;81.53;97687.69;5066928;28;21026;-83
2022/09/03 00:15:55;;;;;;;2.20;1.50;;;15.10;92.20;;;15.96;81.70;97688.28;5084570;28;20471;-83
2022/09/03 00:18:30;;;;;;;2.87;2.23;;;15.00;92.20;;;15.89;82.07;97692.84;5084501;28;21009;-83
2022/09/03 00:21:07;;;;;;;1.47;1.33;;;15.00;92.30;;;15.85;82.23;97686.44;5085082;28;20532;-83
2022/09/03 00:23:41;;;;;;;4.83;1.60;;;15.00;92.40;;;15.82;82.73;97697.44;5086025;28;20490;-83
2022/09/03 00:26:26;;;;;;;5.80;1.83;;;15.00;92.40;;;15.81;83.00;97690.56;5085386;28;20459;-83
2022/09/03 00:29:03;;;;;;;2.20;1.60;;;15.00;92.50;;;15.91;82.80;97691.59;5087624;28;20463;-83
2022/09/03 00:31:37;;;;;;;5.00;1.50;;;15.00;92.50;;;15.89;82.63;97687.59;5083391;28;20516;-82
2022/09/03 00:34:15;;;;;;;3.37;1.60;;;15.00;92.50;;;15.87;82.87;97679.09;5083032;28;20463;-83
2022/09/03 00:36:45;;;;;;;1.63;1.40;;;15.00;92.50;;;15.88;83.13;97685.97;5084707;28;20494;-83
2022/09/03 00:39:18;;;;;;;2.07;1.60;;;15.00;92.50;;;15.87;83.27;97684.34;5083843;28;20455;-83
2022/09/03 00:42:22;;;;;;;1.63;1.30;;;15.00;92.50;;;15.92;83.60;97681.84;5086423;28;20475;-83
2022/09/03 00:45:11;;;;;;;2.30;1.43;;;15.00;92.70;;;15.88;83.14;97686.78;5085399;28;20466;-83
2022/09/03 00:48:02;;;;;;;1.37;1.27;;;15.00;92.60;;;15.90;83.27;97686.53;5084831;28;20467;-83
2022/09/03 00:50:51;;;;;;;6.40;1.80;;;15.00;92.60;;;15.94;82.90;97693.75;5083717;28;20508;-84
2022/09/03 00:53:35;;;;;;;3.43;1.60;;;15.10;92.40;;;15.92;83.16;97692.41;5084326;28;20894;-83
2022/09/03 00:56:17;;;;;;;2.80;1.90;;;15.10;92.50;;;15.90;83.21;97705.00;5082853;28;20512;-83
2022/09/03 00:59:03;;;;;;;6.73;2.23;;;15.10;92.50;;;15.95;83.18;97697.22;5080738;28;20516;-83
2022/09/03 01:01:48;;;;;;;5.63;1.93;;;15.10;92.50;;;15.98;83.01;97699.38;5083431;28;20960;-83
2022/09/03 01:04:39;;;;;;;2.50;1.40;;;15.00;92.50;;;15.85;83.44;97696.97;5081376;28;20491;-82
2022/09/03 01:07:24;;;;;;;2.17;1.57;;;15.00;92.50;;;15.79;83.59;97687.34;5083566;28;20512;-84
2022/09/03 01:10:07;;;;;;;5.93;1.40;;;14.90;92.50;;;15.82;83.88;97687.69;5084448;28;20555;-83
2022/09/03 01:12:50;;;;;;;3.10;1.93;;;14.90;92.70;;;15.84;83.73;97684.81;5085150;28;20472;-83
2022/09/03 01:15:31;;;;;;;1.60;1.40;;;14.90;92.70;;;15.85;83.19;97687.25;5082976;28;20520;-83
2022/09/03 01:18:24;;;;;;;1.70;1.30;;;15.00;92.50;;;15.92;83.62;97676.56;5084148;28;20459;-83
2022/09/03 01:21:19;;;;;;;2.83;1.60;;;15.10;92.50;;;15.93;83.50;97670.28;5084458;28;20881;-83
2022/09/03 01:24:34;;;;;;;2.90;1.50;;;15.00;92.60;;;15.93;83.76;97670.28;5085350;28;20882;-83
2022/09/03 01:27:32;;;;;;;4.67;1.70;;;15.10;93.10;;;15.89;83.98;97671.75;5084933;28;20482;-83
2022/09/03 01:30:09;;;;;;;5.40;1.83;;;14.90;92.70;;;15.87;84.05;97679.88;5086244;28;21008;-83
2022/09/03 01:32:49;;;;;;;2.03;1.60;;;15.00;92.70;;;15.85;84.29;97678.53;5085844;28;20459;-83
2022/09/03 01:35:34;;;;;;;3.30;1.70;;;15.10;92.60;;;15.84;84.52;97677.72;5086009;28;20451;-83
2022/09/03 01:38:22;;;;;;;3.87;1.50;;;15.00;92.80;;;15.91;84.27;97683.69;5083918;28;20933;-83
2022/09/03 01:44:15;;;;;;;1.70;1.30;;;15.10;92.80;;;15.89;84.76;97683.13;5084723;28;21077;-83
2022/09/03 01:46:52;;;;;;;6.03;1.80;;;15.00;92.90;;;15.84;84.88;97680.34;5084273;28;20471;-83
2022/09/03 01:49:34;;;;;;;1.40;1.20;;;15.00;92.90;;;15.82;85.09;97686.91;5082829;28;20468;-83
2022/09/03 01:52:13;;;;;;;3.50;1.50;;;15.00;92.90;;;15.87;84.94;97676.44;5082980;28;20471;-83
2022/09/03 01:55:06;;;;;;;2.83;1.70;;;15.00;92.90;;;15.92;84.95;97673.94;5085057;28;21244;-83
2022/09/03 01:57:51;;;;;;;9.03;1.60;;;14.90;92.90;;;15.86;85.27;97667.72;5085596;28;20460;-83
2022/09/03 02:00:22;;;;;;;2.53;1.77;;;15.00;93.00;;;15.87;85.00;97679.09;5083047;28;20447;-82
2022/09/03 02:02:53;;;;;;;1.50;1.33;;;15.00;92.90;;;15.84;85.31;97675.06;5084006;28;20527;-83
2022/09/03 02:05:25;;;;;;;3.10;1.70;;;15.00;93.00;;;15.87;85.09;97679.09;5082160;28;20595;-83
2022/09/03 02:08:00;;;;;;;2.13;1.50;;;15.00;93.00;;;15.88;85.26;97676.22;5083563;28;20505;-83
2022/09/03 02:10:38;;;;;;;2.83;1.43;;;14.90;93.10;;;15.94;84.81;97677.13;5082911;28;21570;-83
2022/09/03 02:13:11;;;;;;;3.70;1.53;;;15.00;93.00;;;16.01;84.17;97676.00;5082580;28;20470;-83
2022/09/03 02:15:45;;;;;;;3.03;1.70;;;15.00;92.70;;;15.99;84.13;97682.53;5084810;28;20460;-83
2022/09/03 02:18:20;;;;;;;4.30;1.63;;;15.10;92.70;;;15.93;83.95;97678.97;5084545;28;20469;-83
2022/09/03 02:20:52;;;;;;;2.40;1.70;;;15.10;92.60;;;15.97;84.07;97680.13;5084806;28;20479;-83
2022/09/03 02:23:21;;;;;;;2.73;1.90;;;15.10;92.90;;;15.96;84.20;97680.34;5083686;28;20443;-83
2022/09/03 02:25:59;;;;;;;2.80;1.87;;;15.10;92.90;;;15.98;84.34;97675.66;5084562;28;20984;-83
2022/09/03 02:28:32;;;;;;;4.30;1.70;;;15.10;93.30;;;16.03;84.60;97676.56;5083545;28;20872;-83
2022/09/03 02:31:01;;;;;;;1.50;1.33;;;15.10;93.00;;;15.95;85.11;97674.28;5086375;28;20436;-83
2022/09/03 02:33:38;;;;;;;4.80;2.10;;;15.10;93.00;;;15.95;85.01;97670.84;5084769;28;20562;-83
2022/09/03 02:36:11;;;;;;;2.43;1.37;;;15.10;92.80;;;15.94;85.02;97679.78;5087540;28;20964;-83
2022/09/03 02:38:44;;;;;;;1.90;1.47;;;15.10;92.90;;;15.94;85.15;97674.50;5085640;28;20516;-83
2022/09/03 02:41:14;;;;;;;1.60;1.50;;;15.10;92.90;;;15.93;85.14;97671.06;5086797;28;20475;-83
2022/09/03 02:43:49;;;;;;;2.83;1.60;;;15.10;93.00;;;15.98;85.41;97671.19;5085983;28;20487;-83
2022/09/03 02:46:25;;;;;;;1.67;1.40;;;15.10;93.10;;;16.02;85.33;97671.53;5086871;28;20501;-83
2022/09/03 02:48:56;;;;;;;1.87;1.47;;;15.10;93.10;;;16.03;85.49;97673.13;5085541;28;20982;-83
2022/09/03 02:51:25;;;;;;;1.93;1.57;;;15.00;93.20;;;16.02;85.15;97674.16;5084789;28;20909;-83
2022/09/03 02:53:55;;;;;;;2.43;1.43;;;15.10;93.20;;;16.00;85.31;97673.59;5087123;28;20588;-83
2022/09/03 02:56:26;;;;;;;3.90;1.67;;;15.10;93.20;;;16.01;85.46;97669.91;5085008;28;20514;-83
2022/09/03 02:58:56;;;;;;;1.80;1.53;;;15.10;93.20;;;15.99;85.53;97678.06;5084265;28;20455;-83
2022/09/03 03:01:25;;;;;;;1.77;1.50;;;15.10;93.20;;;15.99;85.63;97664.06;5086390;28;20447;-84
2022/09/03 03:03:55;;;;;;;1.70;1.33;;;15.10;93.20;;;15.97;85.64;97668.75;5086309;28;20493;-83
2022/09/03 03:06:24;;;;;;;2.23;1.50;;;15.10;93.10;;;16.01;85.27;97667.28;5085651;28;20483;-83
2022/09/03 03:08:55;;;;;;;3.40;1.70;;;15.10;93.00;;;16.01;85.54;97662.81;5085001;28;20494;-83
2022/09/03 03:11:25;;;;;;;1.40;1.20;;;15.10;93.30;;;15.99;86.04;97661.44;5086131;28;21034;-84
2022/09/03 03:13:54;;;;;;;6.80;3.70;;;15.10;93.40;;;15.98;86.92;97665.09;5092100;27;20473;-86
2022/09/03 03:16:23;;;;;;;3.30;1.70;;;15.10;93.80;;;15.98;88.11;97657.19;5087055;28;20459;-83
2022/09/03 03:18:52;;;;;;;2.50;1.63;;;15.20;93.80;;;16.00;89.27;97663.03;5083240;28;21001;-84
2022/09/03 03:21:22;;;;;;;1.93;1.57;;;15.20;94.50;;;16.03;91.02;97665.22;5085168;28;20471;-83
2022/09/03 03:23:55;;;;;;;3.50;1.60;;;15.10;95.20;;;16.04;92.81;97666.81;5083920;28;20843;-85
2022/09/03 03:26:25;;;;;;;7.53;3.50;;;15.20;95.60;;;15.96;94.13;97667.16;5088763;28;20463;-82
2022/09/03 03:28:59;;;;;;;2.40;1.60;;;15.20;95.20;;;15.92;95.58;97669.47;5085158;28;20513;-82
2022/09/03 03:31:29;;;;;;;2.00;1.63;;;15.10;95.60;;;15.99;95.52;97662.25;5085582;28;20479;-83
2022/09/03 03:34:01;;;;;;;2.33;1.57;;;15.10;95.50;;;16.03;96.37;97659.94;5086797;28;21029;-83
2022/09/03 03:36:34;;;;;;;4.13;1.67;;;15.10;96.10;;;15.95;98.28;97655.81;5084476;28;20470;-83
2022/09/03 03:39:03;;;;;;;2.03;1.60;;;15.00;96.50;;;15.94;99.45;97656.84;5084224;28;20464;-84
2022/09/03 03:41:33;;;;;;;7.50;3.90;;;15.10;96.50;;;15.89;100.00;97659.38;5089926;28;20986;-82
2022/09/03 03:44:05;;;;;;;3.37;2.63;;;15.00;96.50;;;15.90;100.00;97663.59;5085436;28;20460;-86
2022/09/03 03:46:38;;;;;;;4.40;2.00;;;15.00;96.60;;;15.93;100.00;97663.13;5085432;28;20471;-82
2022/09/03 03:49:09;;;;;;;2.27;1.70;;;15.10;96.80;;;15.96;100.00;97667.16;5084199;28;20953;-83
2022/09/03 03:51:41;;;;;;;3.33;1.50;;;15.00;96.90;;;15.94;100.00;97666.59;5084693;28;20563;-83
2022/09/03 03:54:09;;;;;;;2.17;1.50;;;15.10;96.70;;;15.92;100.00;97666.81;5084276;28;20529;-81
2022/09/03 03:56:41;;;;;;;2.10;1.50;;;15.10;97.30;;;15.92;100.00;97666.03;5087698;28;20539;-82
2022/09/03 03:59:12;;;;;;;2.37;1.90;;;15.00;96.90;;;15.90;100.00;97662.78;5083560;28;20518;-82
2022/09/03 04:01:42;;;;;;;2.43;1.60;;;14.90;97.50;;;15.88;100.00;97667.50;5083836;28;20499;-83
2022/09/03 04:04:13;;;;;;;1.93;1.57;;;14.90;97.50;;;15.87;100.00;97656.16;5083517;28;20504;-83
2022/09/03 04:06:48;;;;;;;1.90;1.40;;;15.00;97.90;;;15.83;100.00;97665.56;5085548;28;20884;-83
2022/09/03 04:09:18;;;;;;;1.87;1.60;;;14.90;97.30;;;15.82;100.00;97666.59;5084448;28;20480;-83
2022/09/03 04:11:47;;;;;;;2.67;1.80;;;15.00;97.50;;;15.87;100.00;97655.34;5085332;28;20464;-80
2022/09/03 04:14:17;;;;;;;1.97;1.70;;;15.00;97.50;;;15.88;100.00;97649.84;5080024;28;20464;-83
2022/09/03 04:16:46;;;;;;;2.50;1.90;;;15.00;97.50;;;15.88;100.00;97649.06;5084986;28;20524;-83
2022/09/03 04:19:18;;;;;;;3.90;1.70;;;15.00;97.30;;;15.87;100.00;97656.16;5061997;28;20482;-84
2022/09/03 04:21:49;;;;;;;2.40;1.50;;;14.90;97.40;;;15.88;100.00;97655.13;5083743;28;20476;-83
2022/09/03 04:24:19;;;;;;;5.33;2.07;;;14.90;97.50;;;15.89;100.00;97671.75;5084171;28;20825;-84
2022/09/03 04:26:49;;;;;;;1.97;1.70;;;14.90;97.60;;;15.86;100.00;97672.22;5083486;28;20455;-84
2022/09/03 04:29:18;;;;;;;2.33;1.53;;;14.90;97.50;;;15.84;100.00;97674.28;5085185;28;21016;-84
2022/09/03 04:34:31;;;;;;;3.83;1.80;;;14.90;98.10;;;15.86;100.00;97677.50;5081981;28;20543;-87
2022/09/03 04:37:02;;;;;;;1.90;1.60;;;14.90;98.10;;;15.79;100.00;97674.16;5066549;28;20540;-83
2022/09/03 04:39:32;;;;;;;2.30;1.50;;;14.90;97.90;;;15.80;100.00;97678.38;5083457;28;20464;-83
2022/09/03 04:42:01;;;;;;;1.80;1.53;;;14.90;97.90;;;15.83;100.00;97678.75;5086428;28;20471;-83
2022/09/03 04:44:30;;;;;;;3.97;1.50;;;14.90;97.80;;;15.86;100.00;97673.00;5083431;28;20794;-83
2022/09/03 04:47:02;;;;;;;2.37;1.60;;;14.90;98.00;;;15.81;100.00;97680.00;5084250;28;20468;-84
2022/09/03 04:49:31;;;;;;;5.00;1.47;;;14.90;97.80;;;15.78;100.00;97685.75;5082772;28;20467;-84
2022/09/03 04:52:02;;;;;;;3.03;1.27;;;14.90;98.10;;;15.76;100.00;97685.97;5082340;28;21093;-83
2022/09/03 04:54:30;;;;;;;2.43;1.90;;;14.90;98.00;;;15.82;100.00;97690.34;5081342;28;20466;-83
2022/09/03 04:56:59;;;;;;;1.73;1.30;;;14.90;98.20;;;15.84;100.00;97682.19;5084806;28;20473;-84
2022/09/03 04:59:28;;;;;;;2.50;1.30;;;14.90;97.90;;;15.87;100.00;97685.16;5082532;28;20459;-82
2022/09/03 05:01:58;;;;;;;5.80;1.43;;;14.90;98.00;;;15.89;100.00;97682.31;5083988;28;20463;-84
2022/09/03 05:04:27;;;;;;;11.73;1.70;;;14.90;98.10;;;15.91;100.00;97686.31;5080897;28;20463;-83
2022/09/03 05:06:56;;;;;;;3.00;1.77;;;14.90;98.20;;;15.94;100.00;97695.59;5081807;28;20556;-84
2022/09/03 05:09:25;;;;;;;3.03;1.80;;;15.00;98.20;;;15.90;100.00;97689.97;5082261;28;21064;-83
2022/09/03 05:11:55;;;;;;;2.00;1.80;;;15.00;98.30;;;15.96;100.00;97690.91;5084195;28;20471;-85
2022/09/03 05:14:23;;;;;;;4.43;1.63;;;15.00;98.30;;;15.97;100.00;97690.66;5085181;28;20462;-86
2022/09/03 05:16:52;;;;;;;2.90;1.93;;;15.10;98.30;;;15.99;100.00;97693.09;5086170;28;20472;-86
2022/09/03 05:19:21;;;;;;;2.70;1.80;;;15.00;98.10;;;15.97;100.00;97689.84;5084139;28;20487;-86
2022/09/03 05:21:51;;;;;;;4.10;1.80;;;15.00;98.40;;;16.01;100.00;97689.19;5086289;28;20471;-85
2022/09/03 05:24:19;;;;;;;1.67;1.57;;;15.10;98.30;;;16.03;100.00;97699.50;5083643;28;20463;-84
2022/09/03 05:26:50;;;;;;;1.90;1.70;;;15.10;98.20;;;16.06;100.00;97704.31;5084011;28;20555;-85
2022/09/03 05:29:21;;;;;;;3.10;1.60;;;15.10;98.10;;;16.07;100.00;97700.63;5084123;28;20467;-84
2022/09/03 05:31:50;;;;;;;2.23;1.80;;;15.10;98.10;;;16.08;100.00;97694.31;5085964;28;20929;-81
2022/09/03 05:34:18;;;;;;;3.13;1.70;;;15.10;98.20;;;16.09;100.00;97693.31;5083293;28;20455;-82
2022/09/03 05:36:48;;;;;;;2.57;1.80;;;15.10;98.10;;;16.12;100.00;97690.19;5085451;28;20467;-83
2022/09/03 05:39:18;;;;;;;2.43;1.50;;;15.10;98.30;;;16.12;100.00;97692.84;5081357;28;20466;-83
2022/09/03 05:41:50;;;;;;;3.20;1.93;;;15.20;98.30;;;16.13;100.00;97698.94;5085031;28;20490;-83
2022/09/03 05:44:22;;;;;;;3.03;1.70;;;15.20;98.30;;;16.15;100.00;97696.84;5082367;28;20504;-83
2022/09/03 05:46:52;;;;;;;3.20;1.50;;;15.20;98.10;;;16.16;100.00;97698.47;5083123;28;20494;-83
2022/09/03 05:49:22;;;;;;;2.07;1.67;;;15.20;98.10;;;16.18;100.00;97697.19;5084911;28;20486;-83
2022/09/03 05:51:51;;;;;;;3.60;1.67;;;15.20;98.20;;;16.18;100.00;97697.19;5085303;28;20736;-83
2022/09/03 05:54:20;;;;;;;3.70;1.97;;;15.20;98.50;;;16.19;100.00;97693.53;5081036;28;20459;-83
2022/09/03 05:56:50;;;;;;;2.27;1.50;;;15.20;98.30;;;16.22;100.00;97687.78;5067194;28;20552;-84
2022/09/03 05:59:19;;;;;;;2.40;1.67;;;15.20;98.00;;;16.27;100.00;97689.75;5082001;28;20948;-85
2022/09/03 06:01:48;;;;;;;3.00;1.50;;;15.30;98.10;;;16.27;100.00;97682.63;5083810;28;20536;-83
2022/09/03 06:04:21;;;;;;;2.23;1.40;;;15.30;97.90;;;16.31;100.00;97689.06;5083169;28;20471;-83
2022/09/03 06:06:50;;;;;;;1.80;1.60;;;15.30;97.70;;;16.33;100.00;97686.97;5082926;28;20495;-83
2022/09/03 06:09:21;;;;;;;4.27;1.50;;;15.30;97.70;;;16.36;100.00;97689.13;5087256;28;20475;-83
2022/09/03 06:11:53;;;;;;;2.13;1.73;;;15.30;97.80;;;16.36;100.00;97683.88;5086151;28;20470;-83
2022/09/03 06:14:26;;;;;;;2.13;1.47;;;15.30;98.00;;;16.37;100.00;97695.22;5085796;28;20459;-82
2022/09/03 06:16:55;;;;;;;2.90;1.80;;;15.40;97.70;;;16.38;100.00;97700.25;5085297;28;20490;-83
2022/09/03 06:19:24;;;;;;;2.90;1.70;;;15.40;97.80;;;16.38;100.00;97692.34;5086161;28;20487;-83
2022/09/03 06:21:54;;;;;;;2.80;1.60;;;15.50;97.70;;;16.41;100.00;97694.53;5087741;28;20522;-85
2022/09/03 06:24:23;;;;;;;2.17;1.60;;;15.50;97.70;;;16.43;100.00;97700.38;5086858;28;20458;-84
2022/09/03 06:26:57;;;;;;;2.93;1.70;;;15.50;97.60;;;16.47;100.00;97688.31;5087647;28;20674;-84
2022/09/03 06:29:27;;;;;;;2.40;1.73;;;15.50;97.60;;;16.48;100.00;97692.56;5085886;28;20455;-83
2022/09/03 06:31:55;;;;;;;3.47;1.50;;;15.60;97.80;;;16.50;100.00;97701.06;5090380;28;21003;-82
2022/09/03 06:34:27;;;;;;;2.60;1.67;;;15.50;97.90;;;16.49;100.00;97704.72;5086091;28;20471;-83
2022/09/03 06:36:57;;;;;;;1.73;1.40;;;15.50;97.90;;;16.49;100.00;97699.44;5086079;28;20467;-83
2022/09/03 06:39:25;;;;;;;2.47;1.70;;;15.50;97.90;;;16.53;100.00;97710.34;5086311;28;20475;-82
2022/09/03 06:41:56;;;;;;;2.70;1.63;;;15.60;97.60;;;16.58;100.00;97713.13;5085522;28;20470;-82
2022/09/03 06:44:24;;;;;;;3.17;1.83;;;15.70;97.90;;;16.59;100.00;97709.44;5083846;28;20543;-83
2022/09/03 06:46:54;;;;;;;5.53;1.40;;;15.70;98.10;;;16.59;100.00;97704.94;5085783;28;20568;-83
2022/09/03 06:49:25;;;;;;;3.40;1.57;;;15.70;98.10;;;16.62;100.00;97710.81;5086866;28;20844;-83
2022/09/03 06:51:54;;;;;;;2.00;1.70;;;15.70;98.10;;;16.64;100.00;97698.97;5085045;28;20463;-83
2022/09/03 06:54:24;;;;;;;1.80;1.57;;;15.60;98.00;;;16.68;100.00;97707.22;5086507;28;20530;-83
2022/09/03 06:56:53;;;;;;;2.13;1.60;;;15.70;98.20;;;16.69;100.00;97708.84;5068551;28;20508;-83
2022/09/03 06:59:23;;;;;;;3.20;1.60;;;15.70;98.20;;;16.72;100.00;97703.09;5084121;28;20524;-82
2022/09/03 07:01:52;;;;;;;2.00;1.40;;;15.80;98.10;;;16.73;100.00;97712.63;5085405;28;20499;-82
2022/09/03 07:04:23;;;;;;;1.70;1.30;;;15.80;97.70;;;16.72;100.00;97703.09;5084786;28;20498;-82
2022/09/03 07:06:52;;;;;;;1.83;1.40;;;15.80;97.80;;;16.76;100.00;97704.22;5086544;28;20540;-82
2022/09/03 07:09:20;;;;;;;1.63;1.27;;;15.80;97.60;;;16.80;100.00;97705.38;5086207;28;20497;-83
2022/09/03 07:11:49;;;;;;;2.70;1.83;;;15.90;97.50;;;16.83;100.00;97704.91;5086610;28;20985;-87
2022/09/03 07:14:20;;;;;;;7.47;4.03;;;15.90;97.20;;;16.87;100.00;97714.75;5082833;28;20467;-83
2022/09/03 07:16:51;;;;;;;2.13;1.60;;;15.90;97.10;;;16.90;100.00;97708.22;5085233;28;20965;-83
2022/09/03 07:19:19;;;;;;;3.03;1.70;;;16.00;96.60;;;16.93;99.27;97710.38;5083633;28;21034;-84
2022/09/03 07:21:48;;;;;;;7.73;1.67;;;16.00;96.40;;;16.96;98.43;97715.19;5085294;28;20468;-83
2022/09/03 07:24:20;;;;;;;1.63;1.33;;;16.10;96.30;;;17.00;97.30;97711.03;5083469;28;20608;-83
2022/09/03 07:26:51;;;;;;;3.53;1.80;;;16.10;96.00;;;17.03;96.30;97715.84;5084375;28;20501;-83
2022/09/03 07:29:20;;;;;;;2.10;1.63;;;16.10;95.90;;;17.05;95.65;97713.75;5082766;28;20460;-85
2022/09/03 07:31:51;;;;;;;2.80;1.60;;;16.10;95.90;;;17.08;94.79;97708.81;5083748;28;20548;-84
2022/09/03 07:34:25;;;;;;;1.67;1.40;;;16.20;95.60;;;17.10;93.82;97711.22;5084377;28;20460;-83
2022/09/03 07:36:54;;;;;;;1.70;1.33;;;16.20;95.60;;;17.14;93.61;97707.06;5085280;28;20475;-83
2022/09/03 07:39:22;;;;;;;2.73;1.40;;;16.20;95.50;;;17.17;93.02;97711.88;5082659;28;20467;-83
2022/09/03 07:41:51;;;;;;;2.70;1.60;;;16.20;95.50;;;17.19;92.37;97715.06;5084576;28;20483;-84
2022/09/03 07:44:23;;;;;;;2.43;1.90;;;16.20;95.50;;;17.22;92.26;97708.50;5085323;28;20464;-84
2022/09/03 07:46:54;;;;;;;7.20;3.70;;;16.20;95.40;;;17.26;91.46;97715.72;5066417;28;20841;-84
2022/09/03 07:49:23;;;;;;;1.83;1.60;;;16.30;95.50;;;17.28;91.16;97726.88;5084993;28;21021;-84
2022/09/03 07:51:53;;;;;;;2.50;1.80;;;16.40;95.30;;;17.34;90.87;97733.06;5081823;28;20468;-84
2022/09/03 07:54:24;;;;;;;4.50;1.60;;;16.40;95.20;;;17.37;90.63;97729.94;5082135;28;20559;-84
2022/09/03 07:56:54;;;;;;;3.30;1.63;;;16.40;95.00;;;17.41;90.14;97731.88;5084077;28;20463;-83
2022/09/03 07:59:25;;;;;;;4.53;1.70;;;16.50;95.20;;;17.45;88.47;97735.66;5082518;28;20554;-84
2022/09/03 08:01:55;;;;;;;1.97;1.40;;;16.70;94.70;;;17.49;88.55;97731.47;5085306;28;20530;-84
2022/09/03 08:04:24;;;;;;;3.77;1.40;;;16.70;94.90;;;17.53;87.55;97727.31;5085649;28;20891;-84
2022/09/03 08:06:55;;;;;;;3.17;1.67;;;16.80;94.50;;;17.53;87.67;97732.59;5085276;28;20563;-84
2022/09/03 08:09:24;;;;;;;3.37;1.60;;;16.90;94.40;;;17.57;88.53;97731.13;5085883;28;20455;-86
2022/09/03 08:11:53;;;;;;;2.00;1.70;;;16.90;94.70;;;17.62;88.84;97740.19;5085285;28;20474;-84
2022/09/03 08:14:22;;;;;;;2.60;1.37;;;17.00;94.70;;;17.66;88.30;97733.38;5082981;28;20957;-85
2022/09/03 08:16:50;;;;;;;6.87;1.67;;;17.00;94.50;;;17.73;88.07;97734.03;5084574;28;20965;-85
2022/09/03 08:19:22;;;;;;;3.50;1.50;;;17.10;94.50;;;17.75;87.55;97737.22;5081734;28;20511;-84
2022/09/03 08:21:51;;;;;;;1.70;1.60;;;17.10;94.30;;;17.78;87.84;97740.19;5083749;28;20486;-84
2022/09/03 08:24:23;;;;;;;3.53;1.77;;;17.10;94.50;;;17.80;88.20;97743.41;5083945;28;21218;-84
2022/09/03 08:26:52;;;;;;;1.97;1.60;;;17.20;94.50;;;17.84;88.04;97749.78;5084766;28;20475;-84
2022/09/03 08:29:22;;;;;;;4.67;1.90;;;17.30;94.50;;;17.87;88.21;97740.59;5084096;28;20619;-84
2022/09/03 08:31:51;;;;;;;4.43;1.60;;;17.30;94.50;;;17.89;88.33;97749.09;5084654;28;20526;-85
2022/09/03 08:34:22;;;;;;;10.03;1.50;;;17.30;94.50;;;17.91;88.46;97749.66;5084763;28;20472;-84
2022/09/03 08:36:51;;;;;;;2.97;1.20;;;17.30;94.50;;;17.96;88.24;97757.66;5082909;28;20472;-80
2022/09/03 08:39:20;;;;;;;23.27;11.30;;;17.30;94.50;;;17.97;88.18;97753.97;5071497;28;20490;-83
2022/09/03 08:42:19;;;;;;;3.83;1.80;;;17.20;94.60;;;18.06;87.89;97755.16;5068443;28;20475;-83
2022/09/03 08:44:54;;;;;;;1.83;1.60;;;17.30;94.70;;;18.08;87.98;97745.16;5081220;28;20827;-82
2022/09/03 08:47:30;;;;;;;2.70;1.73;;;17.20;94.70;;;18.14;87.91;97749.47;5084092;28;21000;-82
2022/09/03 08:50:05;;;;;;;3.20;1.80;;;17.30;94.80;;;18.17;88.26;97750.84;5082742;28;20552;-82
2022/09/03 08:52:47;;;;;;;1.73;1.23;;;17.40;94.80;;;18.20;88.03;97753.78;5082986;28;20463;-82
2022/09/03 08:55:26;;;;;;;1.93;1.40;;;17.60;94.60;;;18.26;88.19;97760.75;5084439;28;20470;-81
2022/09/03 08:58:04;;;;;;;2.67;1.50;;;17.50;94.70;;;18.32;88.23;97759.81;5083664;28;20455;-82
2022/09/03 09:00:48;;;;;;;3.73;1.40;;;17.50;94.80;;;18.40;87.94;97764.66;5083191;28;20470;-82
2022/09/03 09:03:38;;;;;;;1.60;1.43;;;17.60;94.90;;;18.43;87.90;97753.59;5083847;28;20470;-83
2022/09/03 09:06:21;;;;;;;1.80;1.57;;;17.70;94.80;;;18.47;88.64;97752.06;5080981;28;20946;-82
2022/09/03 09:09:05;;;;;;;9.60;1.97;;;17.80;94.80;;;18.54;89.00;97747.41;5082197;28;20487;-82
2022/09/03 09:11:50;;;;;;;90.37;58.97;;;17.90;95.00;;;18.63;88.98;97758.41;5084058;28;20494;-90
2022/09/03 09:14:31;;;;;;;2.33;1.80;;;17.90;95.10;;;18.68;90.17;97755.00;5088465;28;20534;-83
2022/09/03 09:17:28;;;;;;;2.13;1.60;;;18.00;95.40;;;18.76;92.20;97750.09;5080480;28;20893;-83
2022/09/03 09:20:09;;;;;;;6.20;1.37;;;18.10;95.90;;;18.86;93.02;97752.06;5078445;28;20827;-83
2022/09/03 09:22:46;;;;;;;2.00;1.60;;;18.20;96.00;;;18.94;95.82;97749.78;5083366;28;20451;-83
2022/09/03 09:25:21;;;;;;;2.87;1.60;;;18.30;96.30;;;18.93;96.10;97755.31;5082932;28;20451;-82
2022/09/03 09:27:58;;;;;;;4.43;1.90;;;18.40;96.30;;;18.99;96.76;97752.47;5083966;28;20486;-83
2022/09/03 09:30:29;;;;;;;1.50;1.40;;;18.50;96.40;;;19.06;98.02;97757.59;5084019;28;20455;-81
2022/09/03 09:32:59;;;;;;;2.70;1.77;;;18.50;96.70;;;19.13;98.78;97757.38;5081200;28;20532;-82
2022/09/03 09:35:29;;;;;;;3.33;1.60;;;18.40;97.10;;;19.21;98.84;97765.72;5083163;28;20470;-82
2022/09/03 09:38:00;;;;;;;2.07;1.70;;;18.40;97.10;;;19.30;98.58;97752.84;5081195;28;20850;-82
2022/09/03 09:40:33;;;;;;;1.60;1.50;;;18.50;97.20;;;19.36;98.04;97746.53;5081331;28;20452;-82
2022/09/03 09:43:14;;;;;;;2.13;1.37;;;18.60;97.10;;;19.41;97.68;97755.34;5082828;28;20466;-82
2022/09/03 09:45:47;;;;;;;2.07;1.60;;;18.60;97.00;;;19.47;96.93;97758.88;5082115;28;20475;-83
2022/09/03 09:48:30;;;;;;;2.93;1.40;;;18.60;96.90;;;19.50;97.00;97756.50;5081908;28;20526;-82
2022/09/03 09:51:07;;;;;;;2.33;1.63;;;18.70;97.10;;;19.52;98.84;97756.25;5083256;28;20487;-83
2022/09/03 09:53:38;;;;;;;6.00;1.90;;;18.70;97.70;;;19.61;100.00;97761.91;5084869;28;20462;-90
2022/09/03 09:56:08;;;;;;;3.47;2.40;;;18.90;97.90;;;19.69;100.00;97758.78;5085993;28;20462;-82
2022/09/03 09:58:37;;;;;;;5.67;1.80;;;19.00;97.90;;;19.69;100.00;97761.44;5078790;28;20536;-82
2022/09/03 10:01:18;;;;;;;2.00;1.63;;;19.10;98.00;;;19.73;100.00;97765.19;5083971;28;21635;-83
2022/09/03 10:03:54;;;;;;;3.40;2.27;;;19.20;98.00;;;19.76;100.00;97762.84;5082391;28;21062;-83
2022/09/03 10:09:16;;;;;;;2.97;2.10;;;19.30;98.10;;;19.83;100.00;97762.63;5082711;28;20483;-82
2022/09/03 10:11:49;;;;;;;2.40;2.00;;;19.30;98.30;;;19.84;100.00;97758.91;5084348;28;20858;-83
2022/09/03 10:14:31;;;;;;;2.33;1.80;;;19.30;98.30;;;19.88;100.00;97760.03;5084592;28;20467;-83
2022/09/03 10:17:10;;;;;;;3.57;2.00;;;19.40;98.50;;;19.94;100.00;97756.34;5085342;28;20457;-83
2022/09/03 10:22:45;;;;;;;4.77;2.30;;;19.50;98.50;;;20.02;100.00;97756.69;5080571;28;20451;-83
2022/09/03 10:25:37;;;;;;;4.83;2.17;;;19.50;98.50;;;20.11;100.00;97754.34;5083388;28;20441;-83
2022/09/03 10:28:10;;;;;;;4.73;2.13;;;19.60;98.70;;;20.17;100.00;97750.66;5084311;28;20490;-83
2022/09/03 10:31:14;;;;;;;2.50;2.07;;;19.60;98.60;;;20.21;100.00;97749.09;5084215;28;20463;-83
2022/09/03 10:33:51;;;;;;;2.90;2.33;;;19.70;98.70;;;20.27;100.00;97750.75;5082640;28;20459;-86
2022/09/03 10:36:26;;;;;;;4.67;1.90;;;19.70;98.80;;;20.34;100.00;97742.59;5083978;28;20843;-83
2022/09/03 10:39:05;;;;;;;6.67;2.53;;;19.80;98.90;;;20.40;100.00;97746.88;5083667;28;20459;-84
2022/09/03 10:41:54;;;;;;;3.30;2.70;;;19.80;99.00;;;20.47;100.00;97742.94;5081767;28;20536;-84
2022/09/03 10:44:46;;;;;;;4.77;2.30;;;19.90;99.20;;;20.52;100.00;97734.97;5084311;28;20827;-84
2022/09/03 10:47:40;;;;;;;2.50;2.30;;;20.00;99.30;;;20.53;100.00;97731.25;5084675;28;20517;-83
2022/09/03 10:50:16;;;;;;;2.87;2.37;;;20.00;99.20;;;20.56;100.00;97725.44;5085100;28;20961;-84
2022/09/03 10:53:07;;;;;;;5.80;2.40;;;19.90;99.30;;;20.62;100.00;97733.44;5084792;28;20462;-85
2022/09/03 10:55:51;;;;;;;2.80;2.47;;;20.00;99.30;;;20.65;100.00;97730.25;5088532;28;20448;-84